createdAt,value
2022-09-01T10:19:01.087Z,99345.10
2022-09-01T10:21:40.492Z,99350.77
2022-09-01T10:24:30.909Z,99350.86
2022-09-01T10:27:14.311Z,99351.65
2022-09-01T10:29:50.364Z,99351.73
2022-09-01T10:32:42.164Z,99345.99
2022-09-01T10:35:24.935Z,99345.41
2022-09-01T10:37:55.939Z,99356.35
2022-09-01T10:40:33.550Z,99356.10
2022-09-01T10:43:26.284Z,99351.39
2022-09-01T10:46:05.340Z,99341.48
2022-09-01T10:48:48.227Z,99339.84
2022-09-01T10:51:29.700Z,99342.11
2022-09-01T10:54:04.092Z,99344.38
2022-09-01T10:56:52.755Z,99338.51
2022-09-01T10:59:37.618Z,99341.17
2022-09-01T11:02:42.082Z,99352.57
2022-09-01T11:04:59.361Z,99344.94
2022-09-01T11:08:00.105Z,99343.77
2022-09-01T11:10:47.761Z,99343.93
2022-09-01T11:13:32.014Z,99339.44
2022-09-01T11:19:16.596Z,99331.84
2022-09-01T11:21:45.074Z,99328.30
2022-09-01T11:24:52.038Z,99333.09
2022-09-01T11:27:50.649Z,99326.98
2022-09-01T11:30:22.298Z,99320.52
2022-09-01T11:32:57.772Z,99318.45
2022-09-01T11:35:29.111Z,99312.93
2022-09-01T11:38:03.530Z,99318.48
2022-09-01T11:40:33.187Z,99324.98
2022-09-01T11:43:07.028Z,99315.92
2022-09-01T11:46:07.498Z,99322.72
2022-09-01T11:48:35.221Z,99330.29
2022-09-01T11:51:07.038Z,99326.13
2022-09-01T11:53:37.041Z,99319.55
2022-09-01T11:56:18.583Z,99319.23
2022-09-01T11:58:49.004Z,99316.83
2022-09-01T12:01:30.593Z,99319.08
2022-09-01T12:03:59.181Z,99320.42
2022-09-01T12:06:32.683Z,99324.52
2022-09-01T12:09:04.753Z,99316.16
2022-09-01T12:11:36.663Z,99318.20
2022-09-01T12:14:11.668Z,99323.92
2022-09-01T12:16:46.413Z,99325.21
2022-09-01T12:19:30.498Z,99325.50
2022-09-01T12:22:04.557Z,99320.62
2022-09-01T12:24:37.442Z,99314.80
2022-09-01T12:27:05.090Z,99314.58
2022-09-01T12:29:38.002Z,99307.92
2022-09-01T12:32:05.866Z,99306.92
2022-09-01T12:34:49.568Z,99315.00
2022-09-01T12:37:16.574Z,99307.54
2022-09-01T12:39:50.984Z,99313.20
2022-09-01T12:42:22.067Z,99306.79
2022-09-01T12:44:52.353Z,99312.58
2022-09-01T12:47:38.491Z,99313.45
2022-09-01T12:50:29.713Z,99299.73
2022-09-01T12:53:14.975Z,99308.19
2022-09-01T12:55:57.360Z,99305.09
2022-09-01T12:58:28.385Z,99295.02
2022-09-01T13:01:01.878Z,99295.55
2022-09-01T13:03:30.713Z,99288.58
2022-09-01T13:06:03.041Z,99280.52
2022-09-01T13:08:33.802Z,99285.52
2022-09-01T13:11:11.693Z,99293.27
2022-09-01T13:13:42.484Z,99298.11
2022-09-01T13:16:13.120Z,99296.48
2022-09-01T13:21:31.530Z,99300.81
2022-09-01T13:24:01.076Z,99291.48
2022-09-01T13:26:32.126Z,99303.42
2022-09-01T13:28:59.962Z,99298.30
2022-09-01T13:31:32.021Z,99292.20
2022-09-01T13:34:22.518Z,99295.73
2022-09-01T13:36:51.707Z,99300.41
2022-09-01T13:39:20.400Z,99296.17
2022-09-01T13:41:52.709Z,99301.84
2022-09-01T13:44:19.840Z,99304.17
2022-09-01T13:50:06.494Z,99299.00
2022-09-01T13:52:27.357Z,99297.77
2022-09-01T13:54:57.275Z,99304.55
2022-09-01T13:57:24.935Z,99297.79
2022-09-01T13:59:52.145Z,99299.06
2022-09-01T14:02:20.151Z,99298.38
2022-09-01T14:04:47.471Z,99291.02
2022-09-01T14:07:16.400Z,99298.50
2022-09-01T14:09:46.110Z,99297.05
2022-09-01T14:12:13.845Z,99298.55
2022-09-01T14:17:28.195Z,99299.95
2022-09-01T14:19:57.554Z,99299.02
2022-09-01T14:22:27.071Z,99310.14
2022-09-01T14:24:55.515Z,99301.58
2022-09-01T14:27:22.694Z,99313.20
2022-09-01T14:29:51.207Z,99313.25
2022-09-01T14:32:27.070Z,99318.31
2022-09-01T14:34:59.695Z,99315.69
2022-09-01T14:37:27.257Z,99310.44
2022-09-01T14:39:58.916Z,99319.83
2022-09-01T14:42:29.039Z,99324.45
2022-09-01T14:44:58.738Z,99327.59
2022-09-01T14:47:26.504Z,99321.32
2022-09-01T14:49:55.487Z,99324.04
2022-09-01T14:52:23.875Z,99321.78
2022-09-01T14:54:51.690Z,99328.59
2022-09-01T14:57:37.729Z,99325.17
2022-09-01T15:00:10.313Z,99319.27
2022-09-01T15:02:44.116Z,99321.45
2022-09-01T15:05:16.386Z,99322.38
2022-09-01T15:07:44.453Z,99323.61
2022-09-01T15:10:24.380Z,99323.73
2022-09-01T15:13:00.103Z,99318.67
2022-09-01T15:15:29.050Z,99325.02
2022-09-01T15:17:57.222Z,99314.67
2022-09-01T15:20:43.625Z,99325.64
2022-09-01T15:23:21.321Z,99326.79
2022-09-01T15:25:51.451Z,99333.56
2022-09-01T15:28:21.483Z,99336.41
2022-09-01T15:30:54.363Z,99330.45
2022-09-01T15:33:21.799Z,99322.80
2022-09-01T15:35:48.947Z,99327.73
2022-09-01T15:38:17.694Z,99322.74
2022-09-01T15:40:55.393Z,99330.28
2022-09-01T15:43:26.884Z,99333.77
2022-09-01T15:45:56.798Z,99329.16
2022-09-01T15:48:25.078Z,99338.27
2022-09-01T15:50:54.429Z,99348.59
2022-09-01T15:53:21.778Z,99352.48
2022-09-01T15:55:50.210Z,99353.21
2022-09-01T15:58:20.291Z,99354.57
2022-09-01T16:00:49.551Z,99360.08
2022-09-01T16:03:17.156Z,99366.09
2022-09-01T16:05:44.647Z,99360.88
2022-09-01T16:08:14.715Z,99364.45
2022-09-01T16:10:42.748Z,99368.30
2022-09-01T16:13:12.133Z,99364.30
2022-09-01T16:15:57.176Z,99372.91
2022-09-01T16:18:27.122Z,99381.09
2022-09-01T16:21:24.314Z,99377.34
2022-09-01T16:23:54.666Z,99385.02
2022-09-01T16:26:23.913Z,99386.72
2022-09-01T16:28:55.248Z,99390.60
2022-09-01T16:31:32.017Z,99393.09
2022-09-01T16:34:07.514Z,99392.66
2022-09-01T16:37:07.183Z,99402.76
2022-09-01T16:39:50.958Z,99407.99
2022-09-01T16:42:47.302Z,99408.64
2022-09-01T16:45:52.849Z,99410.94
2022-09-01T16:48:25.484Z,99408.24
2022-09-01T16:50:54.618Z,99413.44
2022-09-01T16:53:30.431Z,99406.64
2022-09-01T16:56:34.249Z,99417.95
2022-09-01T17:02:01.069Z,99416.41
2022-09-01T17:04:48.125Z,99419.56
2022-09-01T17:08:06.160Z,99420.17
2022-09-01T17:10:43.644Z,99425.14
2022-09-01T17:13:23.649Z,99426.08
2022-09-01T17:15:58.651Z,99424.85
2022-09-01T17:18:48.526Z,99433.13
2022-09-01T17:21:22.432Z,99428.04
2022-09-01T17:24:18.695Z,99425.30
2022-09-01T17:26:50.886Z,99429.96
2022-09-01T17:29:28.426Z,99433.02
2022-09-01T17:32:24.041Z,99432.37
2022-09-01T17:35:17.624Z,99433.39
2022-09-01T17:38:14.253Z,99437.59
2022-09-01T17:41:06.079Z,99433.41
2022-09-01T17:43:54.121Z,99437.40
2022-09-01T17:46:31.454Z,99439.07
2022-09-01T17:49:13.946Z,99436.72
2022-09-01T17:51:44.038Z,99437.62
2022-09-01T17:54:27.572Z,99441.84
2022-09-01T17:56:56.627Z,99447.00
2022-09-01T17:59:49.520Z,99452.98
2022-09-01T18:02:41.755Z,99457.17
2022-09-01T18:05:21.509Z,99460.80
2022-09-01T18:08:16.094Z,99465.53
2022-09-01T18:11:06.359Z,99464.89
2022-09-01T18:13:54.400Z,99472.66
2022-09-01T18:16:26.852Z,99469.01
2022-09-01T18:18:57.681Z,99470.27
2022-09-01T18:22:01.551Z,99473.04
2022-09-01T18:24:38.675Z,99474.41
2022-09-01T18:27:10.273Z,99480.43
2022-09-01T18:29:37.536Z,99478.91
2022-09-01T18:32:44.565Z,99480.61
2022-09-01T18:35:39.221Z,99486.65
2022-09-01T18:38:19.578Z,99489.23
2022-09-01T18:41:08.941Z,99494.41
2022-09-01T18:43:49.509Z,99492.35
2022-09-01T18:46:37.815Z,99497.75
2022-09-01T18:49:09.823Z,99504.13
2022-09-01T18:51:57.900Z,99513.02
2022-09-01T18:54:37.752Z,99515.67
2022-09-01T18:57:07.518Z,99514.05
2022-09-01T18:59:44.911Z,99512.62
2022-09-01T19:02:21.042Z,99517.77
2022-09-01T19:04:58.461Z,99517.44
2022-09-01T19:07:58.184Z,99523.16
2022-09-01T19:10:48.057Z,99526.69
2022-09-01T19:13:28.237Z,99529.05
2022-09-01T19:16:19.804Z,99525.08
2022-09-01T19:19:13.197Z,99528.13
2022-09-01T19:21:43.963Z,99533.75
2022-09-01T19:24:20.234Z,99532.56
2022-09-01T19:27:11.820Z,99533.08
2022-09-01T19:29:52.894Z,99533.81
2022-09-01T19:32:27.566Z,99537.91
2022-09-01T19:35:22.259Z,99540.16
2022-09-01T19:37:54.424Z,99544.84
2022-09-01T19:40:32.119Z,99549.59
2022-09-01T19:43:10.697Z,99548.55
2022-09-01T19:45:52.690Z,99554.25
2022-09-01T19:48:26.638Z,99554.92
2022-09-01T19:51:00.410Z,99560.66
2022-09-01T19:53:36.930Z,99557.54
2022-09-01T19:56:17.381Z,99558.16
2022-09-01T19:59:18.281Z,99559.83
2022-09-01T20:02:11.695Z,99562.09
2022-09-01T20:04:45.959Z,99565.84
2022-09-01T20:07:32.480Z,99562.17
2022-09-01T20:10:23.480Z,99568.62
2022-09-01T20:13:19.759Z,99569.23
2022-09-01T20:16:08.866Z,99572.03
2022-09-01T20:18:50.219Z,99573.23
2022-09-01T20:21:21.662Z,99574.77
2022-09-01T20:24:03.521Z,99576.11
2022-09-01T20:26:39.370Z,99579.45
2022-09-01T20:29:14.485Z,99576.05
2022-09-01T20:31:50.260Z,99573.95
2022-09-01T20:34:26.789Z,99575.30
2022-09-01T20:36:58.925Z,99575.88
2022-09-01T20:39:51.687Z,99574.63
2022-09-01T20:42:31.403Z,99579.88
2022-09-01T20:45:00.728Z,99580.58
2022-09-01T20:47:35.036Z,99584.98
2022-09-01T20:50:08.797Z,99586.02
2022-09-01T20:53:27.410Z,99583.79
2022-09-01T20:56:04.742Z,99588.05
2022-09-01T20:58:47.882Z,99586.42
2022-09-01T21:01:35.321Z,99589.38
2022-09-01T21:04:22.628Z,99592.40
2022-09-01T21:06:57.343Z,99589.45
2022-09-01T21:09:48.644Z,99592.29
2022-09-01T21:12:40.076Z,99594.00
2022-09-01T21:15:09.690Z,99597.54
2022-09-01T21:18:05.826Z,99598.78
2022-09-01T21:21:03.999Z,99596.69
2022-09-01T21:23:31.959Z,99600.98
2022-09-01T21:26:00.396Z,99596.23
2022-09-01T21:28:31.279Z,99598.40
2022-09-01T21:31:02.273Z,99595.59
2022-09-01T21:33:31.823Z,99600.73
2022-09-01T21:36:03.889Z,99597.95
2022-09-01T21:38:31.245Z,99597.43
2022-09-01T21:41:00.488Z,99597.86
2022-09-01T21:43:41.748Z,99597.51
2022-09-01T21:46:10.494Z,99600.83
2022-09-01T21:48:37.601Z,99598.90
2022-09-01T21:51:05.218Z,99599.35
2022-09-01T21:53:32.781Z,99604.97
2022-09-01T21:56:00.031Z,99602.59
2022-09-01T21:58:27.390Z,99604.05
2022-09-01T22:00:55.996Z,99601.73
2022-09-01T22:03:23.444Z,99604.23
2022-09-01T22:05:56.106Z,99603.57
2022-09-01T22:08:24.793Z,99607.46
2022-09-01T22:10:54.767Z,99608.91
2022-09-01T22:13:24.148Z,99610.15
2022-09-01T22:15:53.838Z,99612.05
2022-09-01T22:18:22.400Z,99610.11
2022-09-01T22:20:49.772Z,99615.02
2022-09-01T22:23:20.398Z,99613.46
2022-09-01T22:25:51.324Z,99612.48
2022-09-01T22:28:18.577Z,99615.52
2022-09-01T22:30:48.174Z,99613.55
2022-09-01T22:33:22.103Z,99616.86
2022-09-01T22:35:54.772Z,99614.69
2022-09-01T22:38:23.608Z,99614.90
2022-09-01T22:40:55.217Z,99612.75
2022-09-01T22:43:27.281Z,99616.94
2022-09-01T22:45:55.977Z,99616.17
2022-09-01T22:48:27.190Z,99616.55
2022-09-01T22:50:54.669Z,99619.41
2022-09-01T22:53:23.149Z,99615.99
2022-09-01T22:55:52.831Z,99615.35
2022-09-01T22:58:20.932Z,99614.83
2022-09-01T23:00:59.384Z,99618.04
2022-09-01T23:03:30.858Z,99619.44
2022-09-01T23:06:07.651Z,99619.85
2022-09-01T23:08:39.008Z,99623.19
2022-09-01T23:11:07.772Z,99624.98
2022-09-01T23:13:36.118Z,99626.05
2022-09-01T23:16:10.178Z,99623.18
2022-09-01T23:18:39.642Z,99627.05
2022-09-01T23:21:11.925Z,99630.03
2022-09-01T23:23:39.841Z,99635.48
2022-09-01T23:26:11.190Z,99638.55
2022-09-01T23:28:40.551Z,99639.12
2022-09-01T23:31:15.042Z,99639.56
2022-09-01T23:33:43.025Z,99640.81
2022-09-01T23:36:12.644Z,99641.68
2022-09-01T23:38:40.863Z,99641.10
2022-09-01T23:41:14.676Z,99642.81
2022-09-01T23:43:46.020Z,99640.42
2022-09-01T23:46:27.424Z,99640.18
2022-09-01T23:48:55.883Z,99645.05
2022-09-01T23:51:27.371Z,99647.45
2022-09-01T23:53:58.783Z,99645.98
2022-09-01T23:56:28.482Z,99647.77
2022-09-01T23:58:57.031Z,99653.41
